sensor_id;sensor_type;location;lat;lon;timestamp;P1;durP1;ratioP1;P2;durP2;ratioP2
33714;SDS011;20043;50.998;4.754;2023-12-07T00:01:10;226.38;;;34.17;;
33714;SDS011;20043;50.998;4.754;2023-12-07T00:03:36;165.88;;;32.45;;
33714;SDS011;20043;50.998;4.754;2023-12-07T00:06:01;288.40;;;34.92;;
33714;SDS011;20043;50.998;4.754;2023-12-07T00:08:28;323.23;;;37.05;;
33714;SDS011;20043;50.998;4.754;2023-12-07T00:10:53;202.57;;;36.70;;
33714;SDS011;20043;50.998;4.754;2023-12-07T00:13:19;330.70;;;40.75;;
33714;SDS011;20043;50.998;4.754;2023-12-07T00:15:44;230.50;;;36.30;;
33714;SDS011;20043;50.998;4.754;2023-12-07T00:18:10;395.45;;;37.90;;
33714;SDS011;20043;50.998;4.754;2023-12-07T00:20:36;358.75;;;39.58;;
33714;SDS011;20043;50.998;4.754;2023-12-07T00:23:01;201.95;;;36.50;;
33714;SDS011;20043;50.998;4.754;2023-12-07T00:25:28;235.48;;;36.78;;
33714;SDS011;20043;50.998;4.754;2023-12-07T00:27:53;234.55;;;36.67;;
33714;SDS011;20043;50.998;4.754;2023-12-07T00:30:19;146.70;;;33.83;;
33714;SDS011;20043;50.998;4.754;2023-12-07T00:32:45;218.45;;;35.03;;
33714;SDS011;20043;50.998;4.754;2023-12-07T00:35:11;213.85;;;36.00;;
33714;SDS011;20043;50.998;4.754;2023-12-07T00:37:38;273.95;;;37.17;;
33714;SDS011;20043;50.998;4.754;2023-12-07T00:40:03;232.32;;;36.10;;
33714;SDS011;20043;50.998;4.754;2023-12-07T00:42:30;288.23;;;37.58;;
33714;SDS011;20043;50.998;4.754;2023-12-07T00:44:55;331.05;;;39.95;;
33714;SDS011;20043;50.998;4.754;2023-12-07T00:47:21;288.60;;;38.03;;
33714;SDS011;20043;50.998;4.754;2023-12-07T00:49:47;178.35;;;34.42;;
33714;SDS011;20043;50.998;4.754;2023-12-07T00:52:13;280.08;;;36.75;;
33714;SDS011;20043;50.998;4.754;2023-12-07T00:54:39;237.65;;;38.45;;
33714;SDS011;20043;50.998;4.754;2023-12-07T00:57:05;153.50;;;35.58;;
33714;SDS011;20043;50.998;4.754;2023-12-07T00:59:31;190.02;;;36.78;;
33714;SDS011;20043;50.998;4.754;2023-12-07T01:02:02;183.18;;;37.38;;
33714;SDS011;20043;50.998;4.754;2023-12-07T01:04:29;182.98;;;36.58;;
33714;SDS011;20043;50.998;4.754;2023-12-07T01:06:54;209.82;;;39.22;;
33714;SDS011;20043;50.998;4.754;2023-12-07T01:09:20;171.23;;;37.58;;
33714;SDS011;20043;50.998;4.754;2023-12-07T01:11:47;184.82;;;39.70;;
33714;SDS011;20043;50.998;4.754;2023-12-07T01:14:12;194.55;;;39.60;;
33714;SDS011;20043;50.998;4.754;2023-12-07T01:16:38;174.48;;;38.03;;
33714;SDS011;20043;50.998;4.754;2023-12-07T01:19:04;136.10;;;35.55;;
33714;SDS011;20043;50.998;4.754;2023-12-07T01:21:29;188.68;;;38.72;;
33714;SDS011;20043;50.998;4.754;2023-12-07T01:23:55;164.18;;;35.67;;
33714;SDS011;20043;50.998;4.754;2023-12-07T01:26:21;171.30;;;37.28;;
33714;SDS011;20043;50.998;4.754;2023-12-07T01:28:47;118.95;;;33.85;;
33714;SDS011;20043;50.998;4.754;2023-12-07T01:31:12;148.63;;;36.83;;
33714;SDS011;20043;50.998;4.754;2023-12-07T01:33:38;154.93;;;35.20;;
33714;SDS011;20043;50.998;4.754;2023-12-07T01:36:04;156.88;;;37.92;;
33714;SDS011;20043;50.998;4.754;2023-12-07T01:38:29;185.27;;;35.75;;
33714;SDS011;20043;50.998;4.754;2023-12-07T01:40:55;221.88;;;37.75;;
33714;SDS011;20043;50.998;4.754;2023-12-07T01:43:22;181.30;;;37.38;;
33714;SDS011;20043;50.998;4.754;2023-12-07T01:45:48;212.00;;;39.15;;
33714;SDS011;20043;50.998;4.754;2023-12-07T01:48:16;220.80;;;39.03;;
33714;SDS011;20043;50.998;4.754;2023-12-07T01:50:41;176.90;;;37.70;;
33714;SDS011;20043;50.998;4.754;2023-12-07T01:53:07;151.82;;;36.10;;
33714;SDS011;20043;50.998;4.754;2023-12-07T01:55:34;118.28;;;33.35;;
33714;SDS011;20043;50.998;4.754;2023-12-07T01:58:01;108.38;;;31.25;;
33714;SDS011;20043;50.998;4.754;2023-12-07T02:00:27;104.13;;;31.95;;
33714;SDS011;20043;50.998;4.754;2023-12-07T02:02:53;122.07;;;34.08;;
33714;SDS011;20043;50.998;4.754;2023-12-07T02:05:19;99.82;;;35.47;;
33714;SDS011;20043;50.998;4.754;2023-12-07T02:07:45;126.90;;;34.83;;
33714;SDS011;20043;50.998;4.754;2023-12-07T02:10:18;139.63;;;35.92;;
33714;SDS011;20043;50.998;4.754;2023-12-07T02:12:44;149.00;;;37.13;;
33714;SDS011;20043;50.998;4.754;2023-12-07T02:15:11;113.22;;;34.45;;
33714;SDS011;20043;50.998;4.754;2023-12-07T02:20:36;116.32;;;33.85;;
33714;SDS011;20043;50.998;4.754;2023-12-07T02:23:07;128.05;;;34.80;;
33714;SDS011;20043;50.998;4.754;2023-12-07T02:25:40;121.35;;;34.63;;
33714;SDS011;20043;50.998;4.754;2023-12-07T02:28:27;104.15;;;31.05;;
33714;SDS011;20043;50.998;4.754;2023-12-07T02:30:53;101.75;;;31.25;;
33714;SDS011;20043;50.998;4.754;2023-12-07T02:33:18;114.40;;;32.67;;
33714;SDS011;20043;50.998;4.754;2023-12-07T02:35:44;101.85;;;32.25;;
33714;SDS011;20043;50.998;4.754;2023-12-07T02:38:10;117.15;;;34.20;;
33714;SDS011;20043;50.998;4.754;2023-12-07T02:40:36;108.75;;;34.47;;
33714;SDS011;20043;50.998;4.754;2023-12-07T02:43:03;110.32;;;34.17;;
33714;SDS011;20043;50.998;4.754;2023-12-07T02:45:29;115.38;;;34.28;;
33714;SDS011;20043;50.998;4.754;2023-12-07T02:47:57;129.45;;;33.80;;
33714;SDS011;20043;50.998;4.754;2023-12-07T02:50:23;131.13;;;35.30;;
33714;SDS011;20043;50.998;4.754;2023-12-07T02:52:49;142.45;;;35.72;;
33714;SDS011;20043;50.998;4.754;2023-12-07T02:55:14;114.97;;;34.08;;
33714;SDS011;20043;50.998;4.754;2023-12-07T02:57:40;127.97;;;36.70;;
33714;SDS011;20043;50.998;4.754;2023-12-07T03:00:06;157.50;;;38.28;;
33714;SDS011;20043;50.998;4.754;2023-12-07T03:02:35;135.02;;;37.55;;
33714;SDS011;20043;50.998;4.754;2023-12-07T03:05:02;146.15;;;38.85;;
33714;SDS011;20043;50.998;4.754;2023-12-07T03:07:28;151.75;;;38.28;;
33714;SDS011;20043;50.998;4.754;2023-12-07T03:09:54;165.45;;;41.88;;
33714;SDS011;20043;50.998;4.754;2023-12-07T03:12:19;146.10;;;39.67;;
33714;SDS011;20043;50.998;4.754;2023-12-07T03:14:45;180.75;;;43.20;;
33714;SDS011;20043;50.998;4.754;2023-12-07T03:17:11;153.48;;;41.00;;
33714;SDS011;20043;50.998;4.754;2023-12-07T03:19:39;169.68;;;42.83;;
33714;SDS011;20043;50.998;4.754;2023-12-07T03:22:06;140.02;;;42.13;;
33714;SDS011;20043;50.998;4.754;2023-12-07T03:24:34;142.93;;;41.20;;
33714;SDS011;20043;50.998;4.754;2023-12-07T03:27:00;145.48;;;42.35;;
33714;SDS011;20043;50.998;4.754;2023-12-07T03:29:25;120.00;;;39.65;;
33714;SDS011;20043;50.998;4.754;2023-12-07T03:31:51;122.95;;;39.63;;
33714;SDS011;20043;50.998;4.754;2023-12-07T03:34:17;109.45;;;38.53;;
33714;SDS011;20043;50.998;4.754;2023-12-07T03:36:45;113.72;;;39.67;;
33714;SDS011;20043;50.998;4.754;2023-12-07T03:39:11;115.38;;;39.85;;
33714;SDS011;20043;50.998;4.754;2023-12-07T03:41:38;110.28;;;39.83;;
33714;SDS011;20043;50.998;4.754;2023-12-07T03:44:04;106.72;;;39.70;;
33714;SDS011;20043;50.998;4.754;2023-12-07T03:46:29;104.78;;;39.33;;
33714;SDS011;20043;50.998;4.754;2023-12-07T03:48:55;99.05;;;37.65;;
33714;SDS011;20043;50.998;4.754;2023-12-07T03:51:21;97.00;;;38.42;;
33714;SDS011;20043;50.998;4.754;2023-12-07T03:53:46;96.90;;;36.45;;
33714;SDS011;20043;50.998;4.754;2023-12-07T03:56:22;95.78;;;36.55;;
33714;SDS011;20043;50.998;4.754;2023-12-07T03:58:49;86.43;;;35.70;;
33714;SDS011;20043;50.998;4.754;2023-12-07T04:01:14;83.00;;;35.78;;
33714;SDS011;20043;50.998;4.754;2023-12-07T04:03:40;81.35;;;35.75;;
33714;SDS011;20043;50.998;4.754;2023-12-07T04:06:05;82.78;;;36.30;;
33714;SDS011;20043;50.998;4.754;2023-12-07T04:08:31;85.38;;;36.70;;
33714;SDS011;20043;50.998;4.754;2023-12-07T04:10:58;88.78;;;35.08;;
33714;SDS011;20043;50.998;4.754;2023-12-07T04:13:23;83.95;;;36.60;;
33714;SDS011;20043;50.998;4.754;2023-12-07T04:15:49;83.15;;;36.15;;
33714;SDS011;20043;50.998;4.754;2023-12-07T04:18:15;77.53;;;35.53;;
33714;SDS011;20043;50.998;4.754;2023-12-07T04:20:41;80.68;;;34.97;;
33714;SDS011;20043;50.998;4.754;2023-12-07T04:23:06;78.32;;;34.95;;
33714;SDS011;20043;50.998;4.754;2023-12-07T04:25:32;78.70;;;33.20;;
33714;SDS011;20043;50.998;4.754;2023-12-07T04:27:58;67.45;;;31.55;;
33714;SDS011;20043;50.998;4.754;2023-12-07T04:30:24;71.25;;;33.38;;
33714;SDS011;20043;50.998;4.754;2023-12-07T04:32:49;67.82;;;31.73;;
33714;SDS011;20043;50.998;4.754;2023-12-07T04:35:15;64.63;;;33.65;;
33714;SDS011;20043;50.998;4.754;2023-12-07T04:37:41;71.78;;;33.60;;
33714;SDS011;20043;50.998;4.754;2023-12-07T04:40:07;69.28;;;32.55;;
33714;SDS011;20043;50.998;4.754;2023-12-07T04:42:33;69.72;;;33.75;;
33714;SDS011;20043;50.998;4.754;2023-12-07T04:44:59;67.85;;;33.50;;
33714;SDS011;20043;50.998;4.754;2023-12-07T04:47:24;71.57;;;35.33;;
33714;SDS011;20043;50.998;4.754;2023-12-07T04:49:50;72.85;;;35.92;;
33714;SDS011;20043;50.998;4.754;2023-12-07T04:52:15;77.40;;;36.33;;
33714;SDS011;20043;50.998;4.754;2023-12-07T04:54:41;80.63;;;36.22;;
33714;SDS011;20043;50.998;4.754;2023-12-07T04:57:07;81.38;;;37.08;;
33714;SDS011;20043;50.998;4.754;2023-12-07T04:59:33;76.82;;;39.00;;
33714;SDS011;20043;50.998;4.754;2023-12-07T05:01:59;81.88;;;38.58;;
33714;SDS011;20043;50.998;4.754;2023-12-07T05:04:25;74.00;;;38.45;;
33714;SDS011;20043;50.998;4.754;2023-12-07T05:06:51;75.30;;;38.38;;
33714;SDS011;20043;50.998;4.754;2023-12-07T05:09:16;74.93;;;38.78;;
33714;SDS011;20043;50.998;4.754;2023-12-07T05:11:42;75.82;;;39.40;;
33714;SDS011;20043;50.998;4.754;2023-12-07T05:14:10;74.22;;;38.55;;
33714;SDS011;20043;50.998;4.754;2023-12-07T05:16:36;68.35;;;36.20;;
33714;SDS011;20043;50.998;4.754;2023-12-07T05:19:01;65.20;;;34.88;;
33714;SDS011;20043;50.998;4.754;2023-12-07T05:21:27;65.15;;;35.13;;
33714;SDS011;20043;50.998;4.754;2023-12-07T05:24:00;69.65;;;35.45;;
33714;SDS011;20043;50.998;4.754;2023-12-07T05:26:25;66.57;;;33.25;;
33714;SDS011;20043;50.998;4.754;2023-12-07T05:28:51;66.90;;;33.90;;
33714;SDS011;20043;50.998;4.754;2023-12-07T05:31:17;67.70;;;33.38;;
33714;SDS011;20043;50.998;4.754;2023-12-07T05:33:43;67.03;;;32.20;;
33714;SDS011;20043;50.998;4.754;2023-12-07T05:36:09;58.55;;;31.50;;
33714;SDS011;20043;50.998;4.754;2023-12-07T05:38:35;61.55;;;30.92;;
33714;SDS011;20043;50.998;4.754;2023-12-07T05:41:00;61.00;;;30.48;;
33714;SDS011;20043;50.998;4.754;2023-12-07T05:43:26;57.60;;;29.95;;
33714;SDS011;20043;50.998;4.754;2023-12-07T05:45:51;55.90;;;28.55;;
33714;SDS011;20043;50.998;4.754;2023-12-07T05:48:17;63.22;;;29.08;;
33714;SDS011;20043;50.998;4.754;2023-12-07T05:50:43;46.42;;;27.67;;
33714;SDS011;20043;50.998;4.754;2023-12-07T05:53:08;48.67;;;26.95;;
33714;SDS011;20043;50.998;4.754;2023-12-07T05:55:34;43.00;;;25.73;;
33714;SDS011;20043;50.998;4.754;2023-12-07T05:57:59;47.63;;;25.65;;
33714;SDS011;20043;50.998;4.754;2023-12-07T06:00:25;44.10;;;24.65;;
33714;SDS011;20043;50.998;4.754;2023-12-07T06:02:51;41.38;;;24.83;;
33714;SDS011;20043;50.998;4.754;2023-12-07T06:05:17;41.47;;;24.45;;
33714;SDS011;20043;50.998;4.754;2023-12-07T06:07:42;42.58;;;24.75;;
33714;SDS011;20043;50.998;4.754;2023-12-07T06:10:08;40.33;;;23.58;;
33714;SDS011;20043;50.998;4.754;2023-12-07T06:12:34;40.35;;;23.13;;
33714;SDS011;20043;50.998;4.754;2023-12-07T06:15:00;40.95;;;23.85;;
33714;SDS011;20043;50.998;4.754;2023-12-07T06:17:25;43.20;;;23.48;;
33714;SDS011;20043;50.998;4.754;2023-12-07T06:19:52;41.33;;;23.45;;
33714;SDS011;20043;50.998;4.754;2023-12-07T06:22:17;44.40;;;24.55;;
33714;SDS011;20043;50.998;4.754;2023-12-07T06:24:43;37.47;;;23.30;;
33714;SDS011;20043;50.998;4.754;2023-12-07T06:27:09;39.05;;;23.00;;
33714;SDS011;20043;50.998;4.754;2023-12-07T06:29:35;37.40;;;23.00;;
33714;SDS011;20043;50.998;4.754;2023-12-07T06:32:01;39.83;;;22.70;;
33714;SDS011;20043;50.998;4.754;2023-12-07T06:34:26;43.00;;;22.90;;
33714;SDS011;20043;50.998;4.754;2023-12-07T06:36:53;37.17;;;23.67;;
33714;SDS011;20043;50.998;4.754;2023-12-07T06:39:18;37.92;;;22.33;;
33714;SDS011;20043;50.998;4.754;2023-12-07T06:41:44;40.30;;;23.38;;
33714;SDS011;20043;50.998;4.754;2023-12-07T06:44:10;39.38;;;22.52;;
33714;SDS011;20043;50.998;4.754;2023-12-07T06:46:35;39.00;;;23.52;;
33714;SDS011;20043;50.998;4.754;2023-12-07T06:49:01;36.95;;;22.92;;
33714;SDS011;20043;50.998;4.754;2023-12-07T06:51:27;40.65;;;22.77;;
33714;SDS011;20043;50.998;4.754;2023-12-07T06:53:52;39.15;;;20.92;;
33714;SDS011;20043;50.998;4.754;2023-12-07T06:56:18;35.13;;;20.35;;
33714;SDS011;20043;50.998;4.754;2023-12-07T06:58:43;37.60;;;21.05;;
33714;SDS011;20043;50.998;4.754;2023-12-07T07:01:09;37.72;;;20.75;;
33714;SDS011;20043;50.998;4.754;2023-12-07T07:03:34;34.63;;;21.58;;
33714;SDS011;20043;50.998;4.754;2023-12-07T07:06:00;38.35;;;22.05;;
33714;SDS011;20043;50.998;4.754;2023-12-07T07:08:26;34.97;;;21.17;;
33714;SDS011;20043;50.998;4.754;2023-12-07T07:10:51;35.83;;;21.35;;
33714;SDS011;20043;50.998;4.754;2023-12-07T07:13:17;208.20;;;28.77;;
33714;SDS011;20043;50.998;4.754;2023-12-07T07:15:45;35.33;;;21.30;;
33714;SDS011;20043;50.998;4.754;2023-12-07T07:18:11;40.65;;;20.70;;
33714;SDS011;20043;50.998;4.754;2023-12-07T07:20:36;37.95;;;21.50;;
33714;SDS011;20043;50.998;4.754;2023-12-07T07:23:02;34.83;;;21.17;;
33714;SDS011;20043;50.998;4.754;2023-12-07T07:25:28;37.25;;;21.20;;
33714;SDS011;20043;50.998;4.754;2023-12-07T07:27:53;35.63;;;21.45;;
33714;SDS011;20043;50.998;4.754;2023-12-07T07:30:20;40.03;;;22.02;;
33714;SDS011;20043;50.998;4.754;2023-12-07T07:32:48;36.70;;;21.42;;
33714;SDS011;20043;50.998;4.754;2023-12-07T07:35:14;38.88;;;22.35;;
33714;SDS011;20043;50.998;4.754;2023-12-07T07:37:40;45.30;;;22.10;;
33714;SDS011;20043;50.998;4.754;2023-12-07T07:40:09;41.50;;;21.60;;
33714;SDS011;20043;50.998;4.754;2023-12-07T07:42:37;38.40;;;22.15;;
33714;SDS011;20043;50.998;4.754;2023-12-07T07:45:04;43.78;;;24.50;;
33714;SDS011;20043;50.998;4.754;2023-12-07T07:47:31;41.15;;;22.23;;
33714;SDS011;20043;50.998;4.754;2023-12-07T07:49:57;40.47;;;22.23;;
33714;SDS011;20043;50.998;4.754;2023-12-07T07:52:23;34.83;;;19.77;;
33714;SDS011;20043;50.998;4.754;2023-12-07T07:54:49;33.30;;;19.92;;
33714;SDS011;20043;50.998;4.754;2023-12-07T07:57:14;35.50;;;20.13;;
33714;SDS011;20043;50.998;4.754;2023-12-07T07:59:40;37.95;;;20.27;;
33714;SDS011;20043;50.998;4.754;2023-12-07T08:02:06;32.67;;;19.90;;
33714;SDS011;20043;50.998;4.754;2023-12-07T08:04:32;34.58;;;20.70;;
33714;SDS011;20043;50.998;4.754;2023-12-07T08:06:57;34.67;;;20.38;;
33714;SDS011;20043;50.998;4.754;2023-12-07T08:09:23;37.00;;;20.88;;
33714;SDS011;20043;50.998;4.754;2023-12-07T08:11:48;30.02;;;19.67;;
33714;SDS011;20043;50.998;4.754;2023-12-07T08:14:14;41.95;;;22.63;;
33714;SDS011;20043;50.998;4.754;2023-12-07T08:16:45;44.53;;;25.20;;
33714;SDS011;20043;50.998;4.754;2023-12-07T08:19:11;46.78;;;24.25;;
33714;SDS011;20043;50.998;4.754;2023-12-07T08:21:38;39.88;;;22.70;;
33714;SDS011;20043;50.998;4.754;2023-12-07T08:24:04;40.22;;;23.45;;
33714;SDS011;20043;50.998;4.754;2023-12-07T08:26:30;45.67;;;23.27;;
33714;SDS011;20043;50.998;4.754;2023-12-07T08:28:56;42.03;;;24.90;;
33714;SDS011;20043;50.998;4.754;2023-12-07T08:31:22;41.10;;;24.42;;
33714;SDS011;20043;50.998;4.754;2023-12-07T08:33:49;49.72;;;23.85;;
33714;SDS011;20043;50.998;4.754;2023-12-07T08:36:17;42.90;;;24.02;;
33714;SDS011;20043;50.998;4.754;2023-12-07T08:38:43;38.08;;;22.55;;
33714;SDS011;20043;50.998;4.754;2023-12-07T08:41:08;39.60;;;22.70;;
33714;SDS011;20043;50.998;4.754;2023-12-07T08:43:34;37.22;;;21.92;;
33714;SDS011;20043;50.998;4.754;2023-12-07T08:46:00;40.45;;;22.95;;
33714;SDS011;20043;50.998;4.754;2023-12-07T08:48:25;37.47;;;22.48;;
33714;SDS011;20043;50.998;4.754;2023-12-07T08:50:51;37.30;;;21.30;;
33714;SDS011;20043;50.998;4.754;2023-12-07T08:53:17;39.72;;;22.70;;
33714;SDS011;20043;50.998;4.754;2023-12-07T08:55:42;41.53;;;22.35;;
33714;SDS011;20043;50.998;4.754;2023-12-07T08:58:08;37.28;;;21.27;;
33714;SDS011;20043;50.998;4.754;2023-12-07T09:00:35;37.45;;;22.42;;
33714;SDS011;20043;50.998;4.754;2023-12-07T09:03:02;31.05;;;19.85;;
33714;SDS011;20043;50.998;4.754;2023-12-07T09:05:28;41.97;;;21.52;;
33714;SDS011;20043;50.998;4.754;2023-12-07T09:07:54;31.25;;;22.00;;
33714;SDS011;20043;50.998;4.754;2023-12-07T09:10:21;37.42;;;21.08;;
33714;SDS011;20043;50.998;4.754;2023-12-07T09:12:47;36.50;;;20.65;;
33714;SDS011;20043;50.998;4.754;2023-12-07T09:15:13;37.88;;;19.63;;
33714;SDS011;20043;50.998;4.754;2023-12-07T09:17:38;36.75;;;20.45;;
33714;SDS011;20043;50.998;4.754;2023-12-07T09:20:08;36.45;;;21.08;;
33714;SDS011;20043;50.998;4.754;2023-12-07T09:22:40;33.10;;;18.88;;
33714;SDS011;20043;50.998;4.754;2023-12-07T09:25:07;33.97;;;19.38;;
33714;SDS011;20043;50.998;4.754;2023-12-07T09:27:34;29.48;;;18.15;;
33714;SDS011;20043;50.998;4.754;2023-12-07T09:30:02;29.67;;;18.45;;
33714;SDS011;20043;50.998;4.754;2023-12-07T09:32:32;31.02;;;18.08;;
33714;SDS011;20043;50.998;4.754;2023-12-07T09:35:05;32.70;;;18.63;;
33714;SDS011;20043;50.998;4.754;2023-12-07T09:37:32;30.00;;;18.27;;
33714;SDS011;20043;50.998;4.754;2023-12-07T09:39:58;31.80;;;18.70;;
33714;SDS011;20043;50.998;4.754;2023-12-07T09:42:24;31.65;;;18.40;;
33714;SDS011;20043;50.998;4.754;2023-12-07T09:44:50;32.03;;;18.83;;
33714;SDS011;20043;50.998;4.754;2023-12-07T09:47:16;30.75;;;18.13;;
33714;SDS011;20043;50.998;4.754;2023-12-07T09:49:42;34.42;;;18.02;;
33714;SDS011;20043;50.998;4.754;2023-12-07T09:52:08;28.38;;;18.13;;
33714;SDS011;20043;50.998;4.754;2023-12-07T09:54:39;29.90;;;17.65;;
33714;SDS011;20043;50.998;4.754;2023-12-07T09:57:06;27.95;;;17.70;;
33714;SDS011;20043;50.998;4.754;2023-12-07T09:59:34;29.67;;;17.70;;
33714;SDS011;20043;50.998;4.754;2023-12-07T10:02:07;30.90;;;17.63;;
33714;SDS011;20043;50.998;4.754;2023-12-07T10:04:33;26.42;;;16.80;;
33714;SDS011;20043;50.998;4.754;2023-12-07T10:06:58;32.42;;;17.38;;
33714;SDS011;20043;50.998;4.754;2023-12-07T10:09:24;25.75;;;16.15;;
33714;SDS011;20043;50.998;4.754;2023-12-07T10:12:01;26.02;;;17.55;;
33714;SDS011;20043;50.998;4.754;2023-12-07T10:14:30;30.30;;;17.15;;
33714;SDS011;20043;50.998;4.754;2023-12-07T10:16:56;27.38;;;16.60;;
33714;SDS011;20043;50.998;4.754;2023-12-07T10:19:22;24.15;;;15.85;;
33714;SDS011;20043;50.998;4.754;2023-12-07T10:21:48;27.35;;;17.10;;
33714;SDS011;20043;50.998;4.754;2023-12-07T10:24:15;26.25;;;17.00;;
33714;SDS011;20043;50.998;4.754;2023-12-07T10:26:41;25.30;;;16.63;;
33714;SDS011;20043;50.998;4.754;2023-12-07T10:29:09;26.08;;;16.17;;
33714;SDS011;20043;50.998;4.754;2023-12-07T10:31:35;24.77;;;16.35;;
33714;SDS011;20043;50.998;4.754;2023-12-07T10:34:02;27.95;;;16.38;;
33714;SDS011;20043;50.998;4.754;2023-12-07T10:36:29;29.25;;;16.25;;
33714;SDS011;20043;50.998;4.754;2023-12-07T10:38:55;22.52;;;15.52;;
33714;SDS011;20043;50.998;4.754;2023-12-07T10:41:21;32.08;;;16.27;;
33714;SDS011;20043;50.998;4.754;2023-12-07T10:43:51;25.45;;;16.35;;
33714;SDS011;20043;50.998;4.754;2023-12-07T10:46:19;28.25;;;15.80;;
33714;SDS011;20043;50.998;4.754;2023-12-07T10:48:51;25.85;;;16.10;;
33714;SDS011;20043;50.998;4.754;2023-12-07T10:51:42;26.90;;;16.35;;
33714;SDS011;20043;50.998;4.754;2023-12-07T10:54:16;56.35;;;21.88;;
33714;SDS011;20043;50.998;4.754;2023-12-07T10:56:47;58.20;;;25.95;;
33714;SDS011;20043;50.998;4.754;2023-12-07T10:59:15;35.08;;;16.25;;
33714;SDS011;20043;50.998;4.754;2023-12-07T11:01:42;24.80;;;15.75;;
33714;SDS011;20043;50.998;4.754;2023-12-07T11:04:14;26.00;;;15.70;;
33714;SDS011;20043;50.998;4.754;2023-12-07T11:06:40;23.75;;;14.73;;
33714;SDS011;20043;50.998;4.754;2023-12-07T11:09:08;23.13;;;13.80;;
33714;SDS011;20043;50.998;4.754;2023-12-07T11:14:09;20.60;;;13.60;;
33714;SDS011;20043;50.998;4.754;2023-12-07T11:16:41;27.55;;;13.63;;
33714;SDS011;20043;50.998;4.754;2023-12-07T11:22:06;23.67;;;13.68;;
33714;SDS011;20043;50.998;4.754;2023-12-07T11:24:33;21.65;;;13.23;;
33714;SDS011;20043;50.998;4.754;2023-12-07T11:26:59;23.48;;;12.95;;
33714;SDS011;20043;50.998;4.754;2023-12-07T11:29:25;18.70;;;11.95;;
33714;SDS011;20043;50.998;4.754;2023-12-07T11:31:55;18.67;;;11.77;;
33714;SDS011;20043;50.998;4.754;2023-12-07T11:34:34;21.88;;;13.10;;
33714;SDS011;20043;50.998;4.754;2023-12-07T11:37:03;22.05;;;12.75;;
33714;SDS011;20043;50.998;4.754;2023-12-07T11:39:34;21.92;;;12.10;;
33714;SDS011;20043;50.998;4.754;2023-12-07T11:42:10;23.05;;;12.82;;
33714;SDS011;20043;50.998;4.754;2023-12-07T11:44:39;21.42;;;11.90;;
33714;SDS011;20043;50.998;4.754;2023-12-07T11:47:06;21.33;;;12.13;;
33714;SDS011;20043;50.998;4.754;2023-12-07T11:49:32;19.83;;;12.20;;
33714;SDS011;20043;50.998;4.754;2023-12-07T11:51:58;21.17;;;12.60;;
33714;SDS011;20043;50.998;4.754;2023-12-07T11:54:27;19.95;;;12.18;;
33714;SDS011;20043;50.998;4.754;2023-12-07T11:56:56;19.98;;;11.65;;
33714;SDS011;20043;50.998;4.754;2023-12-07T11:59:23;20.20;;;12.35;;
33714;SDS011;20043;50.998;4.754;2023-12-07T12:01:51;17.17;;;11.77;;
33714;SDS011;20043;50.998;4.754;2023-12-07T12:04:17;18.42;;;11.93;;
33714;SDS011;20043;50.998;4.754;2023-12-07T12:06:45;20.20;;;12.77;;
33714;SDS011;20043;50.998;4.754;2023-12-07T12:09:12;19.17;;;12.30;;
33714;SDS011;20043;50.998;4.754;2023-12-07T12:11:47;16.45;;;10.73;;
33714;SDS011;20043;50.998;4.754;2023-12-07T12:14:14;23.27;;;12.10;;
33714;SDS011;20043;50.998;4.754;2023-12-07T12:16:41;20.65;;;11.43;;
33714;SDS011;20043;50.998;4.754;2023-12-07T12:19:10;17.45;;;11.75;;
33714;SDS011;20043;50.998;4.754;2023-12-07T12:21:36;20.70;;;11.32;;
33714;SDS011;20043;50.998;4.754;2023-12-07T12:24:08;19.60;;;11.35;;
33714;SDS011;20043;50.998;4.754;2023-12-07T12:26:37;18.38;;;11.00;;
33714;SDS011;20043;50.998;4.754;2023-12-07T12:29:05;18.70;;;10.90;;
33714;SDS011;20043;50.998;4.754;2023-12-07T12:31:31;18.83;;;10.90;;
33714;SDS011;20043;50.998;4.754;2023-12-07T12:33:57;18.02;;;10.75;;
33714;SDS011;20043;50.998;4.754;2023-12-07T12:36:25;20.42;;;11.27;;
33714;SDS011;20043;50.998;4.754;2023-12-07T12:38:53;21.08;;;10.50;;
33714;SDS011;20043;50.998;4.754;2023-12-07T12:41:19;15.63;;;10.38;;
33714;SDS011;20043;50.998;4.754;2023-12-07T12:43:45;16.50;;;10.25;;
33714;SDS011;20043;50.998;4.754;2023-12-07T12:46:11;15.38;;;9.85;;
33714;SDS011;20043;50.998;4.754;2023-12-07T12:48:51;17.77;;;10.98;;
33714;SDS011;20043;50.998;4.754;2023-12-07T12:51:18;16.90;;;10.95;;
33714;SDS011;20043;50.998;4.754;2023-12-07T12:53:44;18.60;;;10.77;;
33714;SDS011;20043;50.998;4.754;2023-12-07T12:56:12;17.05;;;10.82;;
33714;SDS011;20043;50.998;4.754;2023-12-07T12:58:38;17.33;;;10.25;;
33714;SDS011;20043;50.998;4.754;2023-12-07T13:01:04;17.75;;;10.43;;
33714;SDS011;20043;50.998;4.754;2023-12-07T13:03:31;18.95;;;12.25;;
33714;SDS011;20043;50.998;4.754;2023-12-07T13:05:57;21.13;;;12.23;;
33714;SDS011;20043;50.998;4.754;2023-12-07T13:08:23;17.35;;;11.18;;
33714;SDS011;20043;50.998;4.754;2023-12-07T13:10:49;18.75;;;11.30;;
33714;SDS011;20043;50.998;4.754;2023-12-07T13:13:15;19.10;;;11.40;;
33714;SDS011;20043;50.998;4.754;2023-12-07T13:15:41;16.23;;;9.90;;
33714;SDS011;20043;50.998;4.754;2023-12-07T13:18:07;18.05;;;10.85;;
33714;SDS011;20043;50.998;4.754;2023-12-07T13:20:33;18.13;;;10.25;;
33714;SDS011;20043;50.998;4.754;2023-12-07T13:23:02;17.35;;;10.07;;
33714;SDS011;20043;50.998;4.754;2023-12-07T13:25:28;17.80;;;9.82;;
33714;SDS011;20043;50.998;4.754;2023-12-07T13:27:54;16.73;;;11.07;;
33714;SDS011;20043;50.998;4.754;2023-12-07T13:30:19;18.70;;;10.85;;
33714;SDS011;20043;50.998;4.754;2023-12-07T13:32:45;16.20;;;9.98;;
33714;SDS011;20043;50.998;4.754;2023-12-07T13:35:10;16.30;;;9.57;;
33714;SDS011;20043;50.998;4.754;2023-12-07T13:37:37;19.30;;;9.77;;
33714;SDS011;20043;50.998;4.754;2023-12-07T13:40:04;16.65;;;9.63;;
33714;SDS011;20043;50.998;4.754;2023-12-07T13:42:35;17.33;;;10.43;;
33714;SDS011;20043;50.998;4.754;2023-12-07T13:45:01;20.58;;;9.60;;
33714;SDS011;20043;50.998;4.754;2023-12-07T13:47:28;14.68;;;9.38;;
33714;SDS011;20043;50.998;4.754;2023-12-07T13:49:59;17.23;;;10.48;;
33714;SDS011;20043;50.998;4.754;2023-12-07T13:52:25;17.85;;;9.68;;
33714;SDS011;20043;50.998;4.754;2023-12-07T13:54:53;15.85;;;9.88;;
33714;SDS011;20043;50.998;4.754;2023-12-07T13:57:20;18.30;;;9.75;;
33714;SDS011;20043;50.998;4.754;2023-12-07T13:59:46;15.27;;;9.23;;
33714;SDS011;20043;50.998;4.754;2023-12-07T14:02:12;20.08;;;9.63;;
33714;SDS011;20043;50.998;4.754;2023-12-07T14:04:38;19.02;;;9.07;;
33714;SDS011;20043;50.998;4.754;2023-12-07T14:07:07;16.70;;;9.48;;
33714;SDS011;20043;50.998;4.754;2023-12-07T14:09:39;13.80;;;8.95;;
33714;SDS011;20043;50.998;4.754;2023-12-07T14:12:09;21.58;;;9.38;;
33714;SDS011;20043;50.998;4.754;2023-12-07T14:14:38;42.83;;;10.63;;
33714;SDS011;20043;50.998;4.754;2023-12-07T14:17:08;13.70;;;8.90;;
33714;SDS011;20043;50.998;4.754;2023-12-07T14:19:34;19.73;;;9.55;;
33714;SDS011;20043;50.998;4.754;2023-12-07T14:22:00;21.27;;;9.32;;
33714;SDS011;20043;50.998;4.754;2023-12-07T14:24:26;18.90;;;9.63;;